sensor_id;sensor_type;location;lat;lon;timestamp;P1;durP1;ratioP1;P2;durP2;ratioP2
4486;SDS011;2256;48.740;9.106;2023-06-10T00:00:23;9.17;;;6.47;;
4486;SDS011;2256;48.740;9.106;2023-06-10T00:02:51;9.57;;;5.53;;
4486;SDS011;2256;48.740;9.106;2023-06-10T00:05:19;12.17;;;6.03;;
4486;SDS011;2256;48.740;9.106;2023-06-10T00:07:46;10.30;;;6.53;;
4486;SDS011;2256;48.740;9.106;2023-06-10T00:10:13;8.43;;;6.03;;
4486;SDS011;2256;48.740;9.106;2023-06-10T00:12:40;11.73;;;6.43;;
4486;SDS011;2256;48.740;9.106;2023-06-10T00:15:09;8.60;;;6.03;;
4486;SDS011;2256;48.740;9.106;2023-06-10T00:17:36;9.33;;;6.00;;
4486;SDS011;2256;48.740;9.106;2023-06-10T00:20:05;10.47;;;6.23;;
4486;SDS011;2256;48.740;9.106;2023-06-10T00:22:35;10.50;;;5.33;;
4486;SDS011;2256;48.740;9.106;2023-06-10T00:25:03;9.17;;;6.40;;
4486;SDS011;2256;48.740;9.106;2023-06-10T00:27:30;9.90;;;6.03;;
4486;SDS011;2256;48.740;9.106;2023-06-10T00:30:02;15.70;;;6.27;;
4486;SDS011;2256;48.740;9.106;2023-06-10T00:32:31;9.93;;;6.00;;
4486;SDS011;2256;48.740;9.106;2023-06-10T00:34:58;9.63;;;6.10;;
4486;SDS011;2256;48.740;9.106;2023-06-10T00:37:25;8.90;;;5.87;;
4486;SDS011;2256;48.740;9.106;2023-06-10T00:39:53;10.07;;;6.50;;
4486;SDS011;2256;48.740;9.106;2023-06-10T00:42:20;13.10;;;5.33;;
4486;SDS011;2256;48.740;9.106;2023-06-10T00:44:50;10.40;;;5.97;;
4486;SDS011;2256;48.740;9.106;2023-06-10T00:47:16;9.50;;;5.80;;
4486;SDS011;2256;48.740;9.106;2023-06-10T00:49:44;8.70;;;6.13;;
4486;SDS011;2256;48.740;9.106;2023-06-10T00:52:13;9.30;;;6.07;;
4486;SDS011;2256;48.740;9.106;2023-06-10T00:54:41;10.13;;;6.50;;
4486;SDS011;2256;48.740;9.106;2023-06-10T00:57:12;10.33;;;6.20;;
4486;SDS011;2256;48.740;9.106;2023-06-10T00:59:39;9.53;;;6.73;;
4486;SDS011;2256;48.740;9.106;2023-06-10T01:02:07;9.40;;;6.50;;
4486;SDS011;2256;48.740;9.106;2023-06-10T01:04:34;9.37;;;6.30;;
4486;SDS011;2256;48.740;9.106;2023-06-10T01:07:04;7.40;;;5.57;;
4486;SDS011;2256;48.740;9.106;2023-06-10T01:09:38;9.67;;;6.40;;
4486;SDS011;2256;48.740;9.106;2023-06-10T01:12:14;9.47;;;6.23;;
4486;SDS011;2256;48.740;9.106;2023-06-10T01:14:45;9.73;;;6.00;;
4486;SDS011;2256;48.740;9.106;2023-06-10T01:17:13;10.40;;;6.43;;
4486;SDS011;2256;48.740;9.106;2023-06-10T01:19:43;11.83;;;6.20;;
4486;SDS011;2256;48.740;9.106;2023-06-10T01:22:11;12.30;;;7.13;;
4486;SDS011;2256;48.740;9.106;2023-06-10T01:24:40;8.13;;;6.37;;
4486;SDS011;2256;48.740;9.106;2023-06-10T01:27:12;9.10;;;5.63;;
4486;SDS011;2256;48.740;9.106;2023-06-10T01:29:43;11.60;;;6.43;;
4486;SDS011;2256;48.740;9.106;2023-06-10T01:32:15;14.33;;;6.50;;
4486;SDS011;2256;48.740;9.106;2023-06-10T01:34:44;12.63;;;6.57;;
4486;SDS011;2256;48.740;9.106;2023-06-10T01:37:15;14.33;;;6.60;;
4486;SDS011;2256;48.740;9.106;2023-06-10T01:39:45;8.33;;;6.07;;
4486;SDS011;2256;48.740;9.106;2023-06-10T01:42:14;8.60;;;5.80;;
4486;SDS011;2256;48.740;9.106;2023-06-10T01:44:42;10.10;;;6.50;;
4486;SDS011;2256;48.740;9.106;2023-06-10T01:47:09;14.43;;;6.10;;
4486;SDS011;2256;48.740;9.106;2023-06-10T01:49:36;11.90;;;6.80;;
4486;SDS011;2256;48.740;9.106;2023-06-10T01:52:04;10.80;;;6.40;;
4486;SDS011;2256;48.740;9.106;2023-06-10T01:54:32;8.70;;;6.03;;
4486;SDS011;2256;48.740;9.106;2023-06-10T01:56:59;9.77;;;5.97;;
4486;SDS011;2256;48.740;9.106;2023-06-10T01:59:26;9.90;;;6.33;;
4486;SDS011;2256;48.740;9.106;2023-06-10T02:01:53;7.97;;;5.40;;
4486;SDS011;2256;48.740;9.106;2023-06-10T02:04:20;10.77;;;5.90;;
4486;SDS011;2256;48.740;9.106;2023-06-10T02:06:47;8.07;;;5.13;;
4486;SDS011;2256;48.740;9.106;2023-06-10T02:09:13;9.47;;;5.73;;
4486;SDS011;2256;48.740;9.106;2023-06-10T02:11:42;8.43;;;5.40;;
4486;SDS011;2256;48.740;9.106;2023-06-10T02:14:08;8.80;;;5.23;;
4486;SDS011;2256;48.740;9.106;2023-06-10T02:16:35;7.13;;;5.40;;
4486;SDS011;2256;48.740;9.106;2023-06-10T02:19:02;9.87;;;5.50;;
4486;SDS011;2256;48.740;9.106;2023-06-10T02:21:31;10.03;;;5.63;;
4486;SDS011;2256;48.740;9.106;2023-06-10T02:23:59;7.93;;;5.40;;
4486;SDS011;2256;48.740;9.106;2023-06-10T02:26:26;6.60;;;5.00;;
4486;SDS011;2256;48.740;9.106;2023-06-10T02:28:54;8.00;;;5.43;;
4486;SDS011;2256;48.740;9.106;2023-06-10T02:31:21;9.00;;;5.97;;
4486;SDS011;2256;48.740;9.106;2023-06-10T02:33:50;14.80;;;6.37;;
4486;SDS011;2256;48.740;9.106;2023-06-10T02:36:17;6.70;;;5.00;;
4486;SDS011;2256;48.740;9.106;2023-06-10T02:38:43;9.13;;;5.70;;
4486;SDS011;2256;48.740;9.106;2023-06-10T02:41:10;10.90;;;5.80;;
4486;SDS011;2256;48.740;9.106;2023-06-10T02:43:37;7.87;;;5.43;;
4486;SDS011;2256;48.740;9.106;2023-06-10T02:46:06;9.27;;;5.43;;
4486;SDS011;2256;48.740;9.106;2023-06-10T02:48:33;9.37;;;5.47;;
4486;SDS011;2256;48.740;9.106;2023-06-10T02:51:09;8.50;;;5.53;;
4486;SDS011;2256;48.740;9.106;2023-06-10T02:53:36;8.73;;;5.90;;
4486;SDS011;2256;48.740;9.106;2023-06-10T02:56:03;7.07;;;4.73;;
4486;SDS011;2256;48.740;9.106;2023-06-10T02:58:30;9.17;;;5.50;;
4486;SDS011;2256;48.740;9.106;2023-06-10T03:00:57;7.50;;;5.10;;
4486;SDS011;2256;48.740;9.106;2023-06-10T03:03:25;6.20;;;5.07;;
4486;SDS011;2256;48.740;9.106;2023-06-10T03:05:52;10.53;;;5.83;;
4486;SDS011;2256;48.740;9.106;2023-06-10T03:08:19;9.20;;;6.20;;
4486;SDS011;2256;48.740;9.106;2023-06-10T03:10:47;9.37;;;5.53;;
4486;SDS011;2256;48.740;9.106;2023-06-10T03:13:13;13.80;;;6.30;;
4486;SDS011;2256;48.740;9.106;2023-06-10T03:15:40;8.03;;;5.67;;
4486;SDS011;2256;48.740;9.106;2023-06-10T03:18:07;7.13;;;5.53;;
4486;SDS011;2256;48.740;9.106;2023-06-10T03:20:35;7.03;;;5.30;;
4486;SDS011;2256;48.740;9.106;2023-06-10T03:23:03;9.60;;;5.83;;
4486;SDS011;2256;48.740;9.106;2023-06-10T03:25:31;8.50;;;5.77;;
4486;SDS011;2256;48.740;9.106;2023-06-10T03:27:58;9.73;;;5.67;;
4486;SDS011;2256;48.740;9.106;2023-06-10T03:30:25;8.70;;;5.80;;
4486;SDS011;2256;48.740;9.106;2023-06-10T03:32:53;10.50;;;5.70;;
4486;SDS011;2256;48.740;9.106;2023-06-10T03:35:20;9.70;;;6.00;;
4486;SDS011;2256;48.740;9.106;2023-06-10T03:37:48;10.13;;;5.70;;
4486;SDS011;2256;48.740;9.106;2023-06-10T03:40:15;6.57;;;5.03;;
4486;SDS011;2256;48.740;9.106;2023-06-10T03:42:42;10.00;;;6.03;;
4486;SDS011;2256;48.740;9.106;2023-06-10T03:45:12;10.03;;;6.27;;
4486;SDS011;2256;48.740;9.106;2023-06-10T03:47:38;9.47;;;5.30;;
4486;SDS011;2256;48.740;9.106;2023-06-10T03:50:06;8.17;;;5.30;;
4486;SDS011;2256;48.740;9.106;2023-06-10T03:52:34;9.57;;;5.70;;
4486;SDS011;2256;48.740;9.106;2023-06-10T03:55:03;7.77;;;5.53;;
4486;SDS011;2256;48.740;9.106;2023-06-10T03:57:30;11.03;;;6.40;;
4486;SDS011;2256;48.740;9.106;2023-06-10T03:59:57;8.60;;;5.93;;
4486;SDS011;2256;48.740;9.106;2023-06-10T04:02:24;7.90;;;5.70;;
4486;SDS011;2256;48.740;9.106;2023-06-10T04:04:51;8.90;;;5.07;;
4486;SDS011;2256;48.740;9.106;2023-06-10T04:07:18;11.13;;;5.87;;
4486;SDS011;2256;48.740;9.106;2023-06-10T04:09:45;9.27;;;5.93;;
4486;SDS011;2256;48.740;9.106;2023-06-10T04:12:13;9.43;;;6.00;;
4486;SDS011;2256;48.740;9.106;2023-06-10T04:14:41;9.50;;;5.57;;
4486;SDS011;2256;48.740;9.106;2023-06-10T04:17:08;8.60;;;6.00;;
4486;SDS011;2256;48.740;9.106;2023-06-10T04:19:35;11.10;;;6.30;;
4486;SDS011;2256;48.740;9.106;2023-06-10T04:22:02;9.47;;;5.40;;
4486;SDS011;2256;48.740;9.106;2023-06-10T04:24:32;6.53;;;4.87;;
4486;SDS011;2256;48.740;9.106;2023-06-10T04:26:59;6.97;;;5.60;;
4486;SDS011;2256;48.740;9.106;2023-06-10T04:29:27;8.63;;;5.93;;
4486;SDS011;2256;48.740;9.106;2023-06-10T04:31:54;9.47;;;5.87;;
4486;SDS011;2256;48.740;9.106;2023-06-10T04:34:21;9.73;;;5.70;;
4486;SDS011;2256;48.740;9.106;2023-06-10T04:36:47;8.43;;;5.83;;
4486;SDS011;2256;48.740;9.106;2023-06-10T04:39:16;12.53;;;6.70;;
4486;SDS011;2256;48.740;9.106;2023-06-10T04:41:44;9.47;;;5.57;;
4486;SDS011;2256;48.740;9.106;2023-06-10T04:44:11;7.30;;;5.00;;
4486;SDS011;2256;48.740;9.106;2023-06-10T04:46:40;10.70;;;5.37;;
4486;SDS011;2256;48.740;9.106;2023-06-10T04:49:06;9.77;;;6.33;;
4486;SDS011;2256;48.740;9.106;2023-06-10T04:51:33;9.13;;;6.13;;
4486;SDS011;2256;48.740;9.106;2023-06-10T04:54:00;9.63;;;5.03;;
4486;SDS011;2256;48.740;9.106;2023-06-10T04:56:28;9.83;;;5.43;;
4486;SDS011;2256;48.740;9.106;2023-06-10T04:58:55;7.03;;;5.30;;
4486;SDS011;2256;48.740;9.106;2023-06-10T05:01:22;8.13;;;5.20;;
4486;SDS011;2256;48.740;9.106;2023-06-10T05:03:51;8.20;;;4.00;;
4486;SDS011;2256;48.740;9.106;2023-06-10T05:06:18;9.07;;;4.90;;
4486;SDS011;2256;48.740;9.106;2023-06-10T05:08:44;9.23;;;5.43;;
4486;SDS011;2256;48.740;9.106;2023-06-10T05:11:11;6.93;;;4.80;;
4486;SDS011;2256;48.740;9.106;2023-06-10T05:13:38;10.83;;;5.30;;
4486;SDS011;2256;48.740;9.106;2023-06-10T05:16:05;4.83;;;4.13;;
4486;SDS011;2256;48.740;9.106;2023-06-10T05:18:32;7.57;;;5.30;;
4486;SDS011;2256;48.740;9.106;2023-06-10T05:21:02;6.67;;;3.93;;
4486;SDS011;2256;48.740;9.106;2023-06-10T05:23:28;7.87;;;5.20;;
4486;SDS011;2256;48.740;9.106;2023-06-10T05:25:55;8.00;;;5.17;;
4486;SDS011;2256;48.740;9.106;2023-06-10T05:28:23;6.50;;;4.57;;
4486;SDS011;2256;48.740;9.106;2023-06-10T05:30:51;7.00;;;4.50;;
4486;SDS011;2256;48.740;9.106;2023-06-10T05:33:18;10.80;;;5.50;;
4486;SDS011;2256;48.740;9.106;2023-06-10T05:35:46;6.13;;;5.00;;
4486;SDS011;2256;48.740;9.106;2023-06-10T05:38:14;7.80;;;4.73;;
4486;SDS011;2256;48.740;9.106;2023-06-10T05:40:41;10.43;;;5.70;;
4486;SDS011;2256;48.740;9.106;2023-06-10T05:43:09;5.40;;;4.20;;
4486;SDS011;2256;48.740;9.106;2023-06-10T05:45:36;6.17;;;4.60;;
4486;SDS011;2256;48.740;9.106;2023-06-10T05:48:05;9.07;;;5.10;;
4486;SDS011;2256;48.740;9.106;2023-06-10T05:50:32;8.03;;;4.50;;
4486;SDS011;2256;48.740;9.106;2023-06-10T05:53:03;7.30;;;5.00;;
4486;SDS011;2256;48.740;9.106;2023-06-10T05:55:33;8.93;;;5.30;;
4486;SDS011;2256;48.740;9.106;2023-06-10T05:58:00;7.23;;;5.10;;
4486;SDS011;2256;48.740;9.106;2023-06-10T06:00:27;9.07;;;5.33;;
4486;SDS011;2256;48.740;9.106;2023-06-10T06:02:54;7.80;;;4.53;;
4486;SDS011;2256;48.740;9.106;2023-06-10T06:05:22;5.47;;;4.30;;
4486;SDS011;2256;48.740;9.106;2023-06-10T06:07:49;7.83;;;4.80;;
4486;SDS011;2256;48.740;9.106;2023-06-10T06:10:16;10.73;;;5.57;;
4486;SDS011;2256;48.740;9.106;2023-06-10T06:12:45;8.33;;;5.47;;
4486;SDS011;2256;48.740;9.106;2023-06-10T06:15:11;5.43;;;4.57;;
4486;SDS011;2256;48.740;9.106;2023-06-10T06:17:38;7.93;;;5.13;;
4486;SDS011;2256;48.740;9.106;2023-06-10T06:20:06;7.00;;;4.63;;
4486;SDS011;2256;48.740;9.106;2023-06-10T06:22:33;8.07;;;5.07;;
4486;SDS011;2256;48.740;9.106;2023-06-10T06:25:01;8.93;;;5.00;;
4486;SDS011;2256;48.740;9.106;2023-06-10T06:27:28;6.90;;;5.00;;
4486;SDS011;2256;48.740;9.106;2023-06-10T06:29:57;6.77;;;4.93;;
4486;SDS011;2256;48.740;9.106;2023-06-10T06:32:24;6.60;;;4.80;;
4486;SDS011;2256;48.740;9.106;2023-06-10T06:34:52;6.00;;;4.30;;
4486;SDS011;2256;48.740;9.106;2023-06-10T06:37:20;5.63;;;3.73;;
4486;SDS011;2256;48.740;9.106;2023-06-10T06:39:48;5.27;;;4.13;;
4486;SDS011;2256;48.740;9.106;2023-06-10T06:42:15;6.10;;;4.30;;
4486;SDS011;2256;48.740;9.106;2023-06-10T06:44:41;7.70;;;4.30;;
4486;SDS011;2256;48.740;9.106;2023-06-10T06:47:11;6.20;;;4.47;;
4486;SDS011;2256;48.740;9.106;2023-06-10T06:49:38;8.80;;;4.27;;
4486;SDS011;2256;48.740;9.106;2023-06-10T06:52:05;6.10;;;4.30;;
4486;SDS011;2256;48.740;9.106;2023-06-10T06:54:32;8.70;;;4.70;;
4486;SDS011;2256;48.740;9.106;2023-06-10T06:57:00;5.43;;;3.90;;
4486;SDS011;2256;48.740;9.106;2023-06-10T06:59:27;5.30;;;4.10;;
4486;SDS011;2256;48.740;9.106;2023-06-10T07:01:54;4.50;;;3.57;;
4486;SDS011;2256;48.740;9.106;2023-06-10T07:04:23;4.60;;;4.00;;
4486;SDS011;2256;48.740;9.106;2023-06-10T07:06:50;5.90;;;3.80;;
4486;SDS011;2256;48.740;9.106;2023-06-10T07:09:17;4.17;;;3.57;;
4486;SDS011;2256;48.740;9.106;2023-06-10T07:11:44;5.07;;;4.57;;
4486;SDS011;2256;48.740;9.106;2023-06-10T07:14:11;5.53;;;4.33;;
4486;SDS011;2256;48.740;9.106;2023-06-10T07:16:37;5.33;;;4.13;;
4486;SDS011;2256;48.740;9.106;2023-06-10T07:19:04;3.63;;;3.30;;
4486;SDS011;2256;48.740;9.106;2023-06-10T07:21:32;5.90;;;4.10;;
4486;SDS011;2256;48.740;9.106;2023-06-10T07:24:00;4.80;;;3.63;;
4486;SDS011;2256;48.740;9.106;2023-06-10T07:26:26;5.27;;;4.10;;
4486;SDS011;2256;48.740;9.106;2023-06-10T07:28:53;4.73;;;3.97;;
4486;SDS011;2256;48.740;9.106;2023-06-10T07:31:20;4.83;;;4.20;;
4486;SDS011;2256;48.740;9.106;2023-06-10T07:33:46;4.80;;;3.60;;
4486;SDS011;2256;48.740;9.106;2023-06-10T07:36:13;6.00;;;4.00;;
4486;SDS011;2256;48.740;9.106;2023-06-10T07:38:41;5.13;;;3.87;;
4486;SDS011;2256;48.740;9.106;2023-06-10T07:41:08;6.43;;;4.00;;
4486;SDS011;2256;48.740;9.106;2023-06-10T07:43:36;5.10;;;4.10;;
4486;SDS011;2256;48.740;9.106;2023-06-10T07:46:04;4.80;;;4.10;;
4486;SDS011;2256;48.740;9.106;2023-06-10T07:48:31;4.43;;;3.63;;
4486;SDS011;2256;48.740;9.106;2023-06-10T07:50:58;7.33;;;4.30;;
4486;SDS011;2256;48.740;9.106;2023-06-10T07:53:24;4.27;;;3.60;;
4486;SDS011;2256;48.740;9.106;2023-06-10T07:55:52;9.00;;;4.10;;
4486;SDS011;2256;48.740;9.106;2023-06-10T07:58:19;4.47;;;3.50;;
4486;SDS011;2256;48.740;9.106;2023-06-10T08:00:47;8.50;;;4.10;;
4486;SDS011;2256;48.740;9.106;2023-06-10T08:03:14;4.63;;;4.20;;
4486;SDS011;2256;48.740;9.106;2023-06-10T08:05:40;4.73;;;4.33;;
4486;SDS011;2256;48.740;9.106;2023-06-10T08:08:07;5.57;;;4.57;;
4486;SDS011;2256;48.740;9.106;2023-06-10T08:10:35;4.70;;;4.10;;
4486;SDS011;2256;48.740;9.106;2023-06-10T08:13:03;4.70;;;3.70;;
4486;SDS011;2256;48.740;9.106;2023-06-10T08:15:29;5.33;;;4.67;;
4486;SDS011;2256;48.740;9.106;2023-06-10T08:17:56;5.07;;;3.83;;
4486;SDS011;2256;48.740;9.106;2023-06-10T08:20:23;5.80;;;4.63;;
4486;SDS011;2256;48.740;9.106;2023-06-10T08:22:50;5.73;;;4.50;;
4486;SDS011;2256;48.740;9.106;2023-06-10T08:25:17;5.67;;;4.30;;
4486;SDS011;2256;48.740;9.106;2023-06-10T08:27:46;4.63;;;3.80;;
4486;SDS011;2256;48.740;9.106;2023-06-10T08:30:15;4.50;;;3.90;;
4486;SDS011;2256;48.740;9.106;2023-06-10T08:32:41;6.80;;;5.13;;
4486;SDS011;2256;48.740;9.106;2023-06-10T08:35:08;5.07;;;4.30;;
4486;SDS011;2256;48.740;9.106;2023-06-10T08:37:35;4.93;;;4.30;;
4486;SDS011;2256;48.740;9.106;2023-06-10T08:40:02;6.57;;;5.17;;
4486;SDS011;2256;48.740;9.106;2023-06-10T08:42:32;6.07;;;4.57;;
4486;SDS011;2256;48.740;9.106;2023-06-10T08:45:02;8.33;;;5.10;;
4486;SDS011;2256;48.740;9.106;2023-06-10T08:47:32;6.30;;;5.10;;
4486;SDS011;2256;48.740;9.106;2023-06-10T08:50:02;4.33;;;3.90;;
4486;SDS011;2256;48.740;9.106;2023-06-10T08:52:33;6.47;;;4.67;;
4486;SDS011;2256;48.740;9.106;2023-06-10T08:55:03;5.53;;;4.43;;
4486;SDS011;2256;48.740;9.106;2023-06-10T08:57:33;7.17;;;5.57;;
4486;SDS011;2256;48.740;9.106;2023-06-10T09:00:00;6.17;;;4.43;;
4486;SDS011;2256;48.740;9.106;2023-06-10T09:02:28;5.70;;;4.77;;
4486;SDS011;2256;48.740;9.106;2023-06-10T09:04:57;4.63;;;4.10;;
4486;SDS011;2256;48.740;9.106;2023-06-10T09:07:25;4.30;;;3.90;;
4486;SDS011;2256;48.740;9.106;2023-06-10T09:09:52;7.40;;;4.67;;
4486;SDS011;2256;48.740;9.106;2023-06-10T09:12:20;6.97;;;4.77;;
4486;SDS011;2256;48.740;9.106;2023-06-10T09:14:47;5.77;;;4.33;;
4486;SDS011;2256;48.740;9.106;2023-06-10T09:17:15;5.10;;;4.43;;
4486;SDS011;2256;48.740;9.106;2023-06-10T09:19:42;16.30;;;4.53;;
4486;SDS011;2256;48.740;9.106;2023-06-10T09:22:12;5.00;;;4.10;;
4486;SDS011;2256;48.740;9.106;2023-06-10T09:24:38;6.00;;;4.30;;
4486;SDS011;2256;48.740;9.106;2023-06-10T09:27:08;6.47;;;3.60;;
4486;SDS011;2256;48.740;9.106;2023-06-10T09:29:45;4.30;;;3.90;;
4486;SDS011;2256;48.740;9.106;2023-06-10T09:32:12;4.60;;;3.53;;
4486;SDS011;2256;48.740;9.106;2023-06-10T09:34:39;4.20;;;3.70;;
4486;SDS011;2256;48.740;9.106;2023-06-10T09:37:06;4.27;;;3.87;;
4486;SDS011;2256;48.740;9.106;2023-06-10T09:39:38;5.10;;;4.23;;
4486;SDS011;2256;48.740;9.106;2023-06-10T09:42:11;5.20;;;4.10;;
4486;SDS011;2256;48.740;9.106;2023-06-10T09:44:42;6.27;;;4.33;;
4486;SDS011;2256;48.740;9.106;2023-06-10T09:47:19;4.40;;;3.80;;
4486;SDS011;2256;48.740;9.106;2023-06-10T09:49:46;5.73;;;4.47;;
4486;SDS011;2256;48.740;9.106;2023-06-10T09:52:13;4.50;;;3.93;;
4486;SDS011;2256;48.740;9.106;2023-06-10T09:54:41;6.93;;;4.67;;
4486;SDS011;2256;48.740;9.106;2023-06-10T09:57:11;5.30;;;4.17;;
4486;SDS011;2256;48.740;9.106;2023-06-10T09:59:40;5.37;;;3.80;;
4486;SDS011;2256;48.740;9.106;2023-06-10T10:02:09;5.83;;;3.90;;
4486;SDS011;2256;48.740;9.106;2023-06-10T10:04:40;4.93;;;3.90;;
4486;SDS011;2256;48.740;9.106;2023-06-10T10:07:06;5.70;;;4.17;;
4486;SDS011;2256;48.740;9.106;2023-06-10T10:09:35;3.90;;;3.50;;
4486;SDS011;2256;48.740;9.106;2023-06-10T10:12:03;4.30;;;3.80;;
4486;SDS011;2256;48.740;9.106;2023-06-10T10:14:35;4.83;;;3.67;;
4486;SDS011;2256;48.740;9.106;2023-06-10T10:17:04;4.90;;;3.60;;
4486;SDS011;2256;48.740;9.106;2023-06-10T10:19:37;4.27;;;3.83;;
4486;SDS011;2256;48.740;9.106;2023-06-10T10:22:14;4.80;;;3.80;;
4486;SDS011;2256;48.740;9.106;2023-06-10T10:24:46;5.53;;;4.30;;
4486;SDS011;2256;48.740;9.106;2023-06-10T10:27:19;4.80;;;3.90;;
4486;SDS011;2256;48.740;9.106;2023-06-10T10:29:51;8.07;;;3.93;;
4486;SDS011;2256;48.740;9.106;2023-06-10T10:32:19;4.27;;;3.87;;
4486;SDS011;2256;48.740;9.106;2023-06-10T10:34:53;5.17;;;3.83;;
4486;SDS011;2256;48.740;9.106;2023-06-10T10:37:30;5.47;;;4.00;;
4486;SDS011;2256;48.740;9.106;2023-06-10T10:39:58;6.77;;;4.07;;
4486;SDS011;2256;48.740;9.106;2023-06-10T10:42:28;5.80;;;4.23;;
4486;SDS011;2256;48.740;9.106;2023-06-10T10:44:55;5.20;;;4.20;;
4486;SDS011;2256;48.740;9.106;2023-06-10T10:47:22;5.20;;;4.10;;
4486;SDS011;2256;48.740;9.106;2023-06-10T10:49:54;7.00;;;3.80;;
4486;SDS011;2256;48.740;9.106;2023-06-10T10:52:24;4.90;;;4.00;;
4486;SDS011;2256;48.740;9.106;2023-06-10T10:54:53;6.97;;;4.50;;
4486;SDS011;2256;48.740;9.106;2023-06-10T10:57:21;4.40;;;3.87;;
4486;SDS011;2256;48.740;9.106;2023-06-10T10:59:54;5.67;;;4.77;;
4486;SDS011;2256;48.740;9.106;2023-06-10T11:02:32;8.20;;;4.70;;
4486;SDS011;2256;48.740;9.106;2023-06-10T11:05:00;6.53;;;4.70;;
4486;SDS011;2256;48.740;9.106;2023-06-10T11:07:30;6.57;;;4.73;;
4486;SDS011;2256;48.740;9.106;2023-06-10T11:09:58;6.37;;;4.67;;
4486;SDS011;2256;48.740;9.106;2023-06-10T11:12:25;4.70;;;3.90;;
4486;SDS011;2256;48.740;9.106;2023-06-10T11:15:06;5.50;;;4.03;;
4486;SDS011;2256;48.740;9.106;2023-06-10T11:17:34;6.33;;;4.10;;
4486;SDS011;2256;48.740;9.106;2023-06-10T11:20:00;3.97;;;3.57;;
4486;SDS011;2256;48.740;9.106;2023-06-10T11:22:27;4.53;;;4.00;;
4486;SDS011;2256;48.740;9.106;2023-06-10T11:24:54;4.93;;;4.00;;
4486;SDS011;2256;48.740;9.106;2023-06-10T11:27:25;4.70;;;4.20;;
4486;SDS011;2256;48.740;9.106;2023-06-10T11:29:55;4.23;;;3.50;;
4486;SDS011;2256;48.740;9.106;2023-06-10T11:32:24;5.93;;;4.50;;
4486;SDS011;2256;48.740;9.106;2023-06-10T11:34:56;5.43;;;4.03;;
4486;SDS011;2256;48.740;9.106;2023-06-10T11:37:24;4.80;;;3.80;;
4486;SDS011;2256;48.740;9.106;2023-06-10T11:39:51;6.13;;;4.70;;
4486;SDS011;2256;48.740;9.106;2023-06-10T11:42:19;5.43;;;4.20;;
4486;SDS011;2256;48.740;9.106;2023-06-10T11:44:48;5.83;;;4.60;;
4486;SDS011;2256;48.740;9.106;2023-06-10T11:47:15;6.50;;;4.67;;
4486;SDS011;2256;48.740;9.106;2023-06-10T11:49:45;5.77;;;4.73;;
4486;SDS011;2256;48.740;9.106;2023-06-10T11:52:13;7.83;;;4.33;;
4486;SDS011;2256;48.740;9.106;2023-06-10T11:54:41;8.40;;;4.20;;
4486;SDS011;2256;48.740;9.106;2023-06-10T11:57:08;6.50;;;4.10;;
4486;SDS011;2256;48.740;9.106;2023-06-10T11:59:36;4.33;;;3.70;;
4486;SDS011;2256;48.740;9.106;2023-06-10T12:02:03;6.87;;;4.70;;
4486;SDS011;2256;48.740;9.106;2023-06-10T12:04:30;7.13;;;4.37;;
4486;SDS011;2256;48.740;9.106;2023-06-10T12:06:58;6.37;;;4.70;;
4486;SDS011;2256;48.740;9.106;2023-06-10T12:09:26;5.30;;;4.47;;
4486;SDS011;2256;48.740;9.106;2023-06-10T12:11:55;5.20;;;3.93;;
4486;SDS011;2256;48.740;9.106;2023-06-10T12:17:20;4.80;;;4.00;;
4486;SDS011;2256;48.740;9.106;2023-06-10T12:19:48;5.00;;;4.03;;
4486;SDS011;2256;48.740;9.106;2023-06-10T12:22:16;6.67;;;4.40;;
4486;SDS011;2256;48.740;9.106;2023-06-10T12:24:44;4.20;;;3.73;;
4486;SDS011;2256;48.740;9.106;2023-06-10T12:27:12;4.20;;;3.80;;
4486;SDS011;2256;48.740;9.106;2023-06-10T12:29:39;4.30;;;3.90;;
4486;SDS011;2256;48.740;9.106;2023-06-10T12:32:18;4.80;;;4.00;;
4486;SDS011;2256;48.740;9.106;2023-06-10T12:34:48;5.70;;;4.30;;
4486;SDS011;2256;48.740;9.106;2023-06-10T12:37:17;6.20;;;4.37;;
4486;SDS011;2256;48.740;9.106;2023-06-10T12:39:43;4.13;;;3.73;;
4486;SDS011;2256;48.740;9.106;2023-06-10T12:42:18;4.30;;;3.90;;
4486;SDS011;2256;48.740;9.106;2023-06-10T12:44:52;9.67;;;4.53;;
4486;SDS011;2256;48.740;9.106;2023-06-10T12:47:20;3.47;;;3.17;;
4486;SDS011;2256;48.740;9.106;2023-06-10T12:49:56;19.20;;;6.63;;
4486;SDS011;2256;48.740;9.106;2023-06-10T12:52:27;8.23;;;5.60;;
4486;SDS011;2256;48.740;9.106;2023-06-10T12:54:54;6.07;;;4.30;;
4486;SDS011;2256;48.740;9.106;2023-06-10T12:57:21;5.20;;;3.97;;
4486;SDS011;2256;48.740;9.106;2023-06-10T12:59:48;6.27;;;4.00;;
4486;SDS011;2256;48.740;9.106;2023-06-10T13:02:17;11.63;;;4.80;;
4486;SDS011;2256;48.740;9.106;2023-06-10T13:04:46;5.03;;;4.30;;
4486;SDS011;2256;48.740;9.106;2023-06-10T13:07:13;4.87;;;3.93;;
4486;SDS011;2256;48.740;9.106;2023-06-10T13:09:42;5.80;;;4.27;;
4486;SDS011;2256;48.740;9.106;2023-06-10T13:12:10;6.53;;;4.70;;
4486;SDS011;2256;48.740;9.106;2023-06-10T13:14:38;5.53;;;3.93;;
4486;SDS011;2256;48.740;9.106;2023-06-10T13:17:05;4.83;;;3.80;;
4486;SDS011;2256;48.740;9.106;2023-06-10T13:19:32;5.27;;;4.23;;
4486;SDS011;2256;48.740;9.106;2023-06-10T13:21:59;3.87;;;3.47;;
4486;SDS011;2256;48.740;9.106;2023-06-10T13:24:26;5.40;;;4.10;;
4486;SDS011;2256;48.740;9.106;2023-06-10T13:26:54;4.20;;;3.80;;
4486;SDS011;2256;48.740;9.106;2023-06-10T13:29:23;4.17;;;3.77;;
4486;SDS011;2256;48.740;9.106;2023-06-10T13:31:50;4.70;;;4.00;;
4486;SDS011;2256;48.740;9.106;2023-06-10T13:34:17;6.00;;;4.03;;
4486;SDS011;2256;48.740;9.106;2023-06-10T13:36:43;5.33;;;4.17;;
4486;SDS011;2256;48.740;9.106;2023-06-10T13:39:10;5.43;;;4.23;;
4486;SDS011;2256;48.740;9.106;2023-06-10T13:41:38;4.33;;;3.93;;
4486;SDS011;2256;48.740;9.106;2023-06-10T13:44:08;6.37;;;4.07;;
4486;SDS011;2256;48.740;9.106;2023-06-10T13:46:34;4.43;;;3.90;;
4486;SDS011;2256;48.740;9.106;2023-06-10T13:49:01;4.20;;;3.73;;
4486;SDS011;2256;48.740;9.106;2023-06-10T13:51:28;4.43;;;3.60;;
4486;SDS011;2256;48.740;9.106;2023-06-10T13:53:55;4.10;;;3.57;;
4486;SDS011;2256;48.740;9.106;2023-06-10T13:56:23;3.40;;;3.00;;
4486;SDS011;2256;48.740;9.106;2023-06-10T13:58:50;14.50;;;3.80;;
4486;SDS011;2256;48.740;9.106;2023-06-10T14:01:18;5.03;;;3.93;;
4486;SDS011;2256;48.740;9.106;2023-06-10T14:03:45;4.20;;;3.60;;
4486;SDS011;2256;48.740;9.106;2023-06-10T14:06:12;3.77;;;3.33;;
4486;SDS011;2256;48.740;9.106;2023-06-10T14:08:46;2.93;;;2.73;;
4486;SDS011;2256;48.740;9.106;2023-06-10T14:11:12;4.50;;;4.00;;
4486;SDS011;2256;48.740;9.106;2023-06-10T14:13:40;3.60;;;3.30;;
4486;SDS011;2256;48.740;9.106;2023-06-10T14:16:07;5.50;;;3.93;;
4486;SDS011;2256;48.740;9.106;2023-06-10T14:18:35;4.03;;;3.63;;
4486;SDS011;2256;48.740;9.106;2023-06-10T14:21:02;4.43;;;3.90;;
4486;SDS011;2256;48.740;9.106;2023-06-10T14:23:30;7.33;;;3.80;;
4486;SDS011;2256;48.740;9.106;2023-06-10T14:25:56;3.93;;;3.53;;
4486;SDS011;2256;48.740;9.106;2023-06-10T14:28:24;5.13;;;3.80;;
4486;SDS011;2256;48.740;9.106;2023-06-10T14:30:52;4.33;;;3.40;;
4486;SDS011;2256;48.740;9.106;2023-06-10T14:33:19;5.70;;;3.77;;
4486;SDS011;2256;48.740;9.106;2023-06-10T14:35:47;3.97;;;3.37;;
4486;SDS011;2256;48.740;9.106;2023-06-10T14:38:14;3.90;;;3.37;;
4486;SDS011;2256;48.740;9.106;2023-06-10T14:40:41;4.67;;;3.50;;
4486;SDS011;2256;48.740;9.106;2023-06-10T14:43:08;4.37;;;3.50;;
4486;SDS011;2256;48.740;9.106;2023-06-10T14:45:35;3.97;;;3.57;;
4486;SDS011;2256;48.740;9.106;2023-06-10T14:48:02;4.27;;;3.67;;
4486;SDS011;2256;48.740;9.106;2023-06-10T14:50:28;3.73;;;3.30;;
4486;SDS011;2256;48.740;9.106;2023-06-10T14:52:56;4.23;;;3.60;;
4486;SDS011;2256;48.740;9.106;2023-06-10T14:55:24;4.30;;;3.50;;
4486;SDS011;2256;48.740;9.106;2023-06-10T14:57:53;4.53;;;3.13;;
4486;SDS011;2256;48.740;9.106;2023-06-10T15:00:20;4.50;;;3.73;;
4486;SDS011;2256;48.740;9.106;2023-06-10T15:02:49;5.73;;;3.97;;
4486;SDS011;2256;48.740;9.106;2023-06-10T15:05:16;4.33;;;3.90;;
4486;SDS011;2256;48.740;9.106;2023-06-10T15:07:44;4.80;;;3.80;;
4486;SDS011;2256;48.740;9.106;2023-06-10T15:10:14;4.57;;;4.10;;
4486;SDS011;2256;48.740;9.106;2023-06-10T15:12:42;4.90;;;3.50;;
4486;SDS011;2256;48.740;9.106;2023-06-10T15:15:08;5.23;;;3.80;;
4486;SDS011;2256;48.740;9.106;2023-06-10T15:17:35;4.70;;;4.30;;
4486;SDS011;2256;48.740;9.106;2023-06-10T15:20:03;4.47;;;3.90;;
4486;SDS011;2256;48.740;9.106;2023-06-10T15:22:30;8.27;;;4.57;;